Time;durP1;ratioP1;P1;durP2;ratioP2;P2;SDS_P1;SDS_P2;PMS_P1;PMS_P2;Temp;Humidity;BMP_temperature;BMP_pressure;BME280_temperature;BME280_humidity;BME280_pressure;Samples;Min_cycle;Max_cycle;Signal;HPM_P1;HPM_P2
2023/10/15 00:01:05;;;;;;;6.03;4.75;;;12.70;99.90;;;;;;4906069;29;20236;-86
2023/10/15 00:03:33;;;;;;;6.35;2.42;;;12.70;99.90;;;;;;4899719;29;20257;-81
2023/10/15 00:06:00;;;;;;;9.35;4.45;;;12.70;99.90;;;;;;4890409;29;20275;-81
2023/10/15 00:08:30;;;;;;;11.07;5.80;;;12.70;99.90;;;;;;4899574;29;20313;-81
2023/10/15 00:11:00;;;;;;;10.23;3.13;;;12.70;99.90;;;;;;4899615;29;20474;-81
2023/10/15 00:13:27;;;;;;;7.57;3.75;;;12.70;99.90;;;;;;4890236;29;20778;-81
2023/10/15 00:15:57;;;;;;;5.22;3.63;;;12.70;99.90;;;;;;4899601;29;20594;-87
2023/10/15 00:21:12;;;;;;;5.85;2.00;;;12.60;99.90;;;;;;4896979;29;20374;-87
2023/10/15 00:23:40;;;;;;;6.63;2.13;;;12.60;99.90;;;;;;4899725;29;20226;-81
2023/10/15 00:26:12;;;;;;;5.57;2.90;;;12.70;99.90;;;;;;4900277;29;20481;-87
2023/10/15 00:28:39;;;;;;;6.80;2.47;;;12.60;99.90;;;;;;4907899;29;20304;-87
2023/10/15 00:31:10;;;;;;;4.53;2.50;;;12.50;99.90;;;;;;4918229;29;20251;-81
2023/10/15 00:33:37;;;;;;;4.25;2.80;;;12.50;99.90;;;;;;4917233;29;20519;-86
2023/10/15 00:36:05;;;;;;;5.90;2.30;;;12.50;99.90;;;;;;4917850;29;20244;-86
2023/10/15 00:38:36;;;;;;;7.85;2.58;;;12.50;99.90;;;;;;4917547;29;20233;-86
2023/10/15 00:41:08;;;;;;;5.70;2.60;;;12.50;99.90;;;;;;4918626;29;20240;-86
2023/10/15 00:43:50;;;;;;;6.97;2.38;;;12.50;99.90;;;;;;4917588;29;20229;-81
2023/10/15 00:46:18;;;;;;;3.75;2.20;;;12.50;99.90;;;;;;4921343;29;20249;-80
2023/10/15 00:48:46;;;;;;;8.35;4.22;;;12.50;99.90;;;;;;4917492;29;20735;-87
2023/10/15 00:51:17;;;;;;;9.15;4.70;;;12.50;99.90;;;;;;4917505;29;20606;-87
2023/10/15 00:53:50;;;;;;;5.95;2.05;;;12.50;99.90;;;;;;4916815;29;20229;-85
2023/10/15 00:56:26;;;;;;;4.20;2.63;;;12.50;99.90;;;;;;4917562;29;20239;-86
2023/10/15 00:59:08;;;;;;;6.32;2.17;;;12.40;99.90;;;;;;4918309;29;20235;-86
2023/10/15 01:01:39;;;;;;;4.90;1.80;;;12.40;99.90;;;;;;4921829;29;20221;-85
2023/10/15 01:04:07;;;;;;;8.52;3.05;;;12.40;99.90;;;;;;4937044;29;20624;-81
2023/10/15 01:06:38;;;;;;;6.63;2.53;;;12.30;99.90;;;;;;4936062;29;20572;-86
2023/10/15 01:09:10;;;;;;;6.00;2.55;;;12.30;99.90;;;;;;4937235;29;20288;-86
2023/10/15 01:11:44;;;;;;;9.10;2.45;;;12.30;99.90;;;;;;4936343;29;20229;-86
2023/10/15 01:14:13;;;;;;;5.22;1.92;;;12.30;99.90;;;;;;4936241;29;20233;-86
2023/10/15 01:16:41;;;;;;;3.85;2.45;;;12.20;99.90;;;;;;4935952;29;20232;-81
2023/10/15 01:19:20;;;;;;;6.80;2.03;;;12.20;99.90;;;;;;4936076;29;20229;-81
2023/10/15 01:21:53;;;;;;;5.57;2.28;;;12.20;99.90;;;;;;4936044;29;20239;-87
2023/10/15 01:24:22;;;;;;;7.30;2.67;;;12.20;99.90;;;;;;4936424;29;20263;-82
2023/10/15 01:27:03;;;;;;;8.10;2.40;;;12.20;99.90;;;;;;4935882;29;20239;-88
2023/10/15 01:29:33;;;;;;;6.38;3.47;;;12.20;99.90;;;;;;4921119;29;20229;-88
2023/10/15 01:32:03;;;;;;;7.82;2.10;;;12.20;99.90;;;;;;4916677;29;20242;-87
2023/10/15 01:34:37;;;;;;;3.25;2.08;;;12.20;99.90;;;;;;4917099;29;20253;-81
2023/10/15 01:37:36;;;;;;;7.85;4.18;;;12.20;99.90;;;;;;4916332;29;20232;-88
2023/10/15 01:43:32;;;;;;;7.32;2.60;;;12.20;99.90;;;;;;4866214;29;20230;-86
2023/10/15 01:46:41;;;;;;;7.18;2.47;;;12.20;99.90;;;;;;4886058;29;20231;-87
2023/10/15 01:49:31;;;;;;;8.23;3.05;;;12.10;99.90;;;;;;4852896;29;20258;-87
2023/10/15 01:52:06;;;;;;;6.45;2.90;;;12.10;99.90;;;;;;4878067;29;20690;-86
2023/10/15 01:54:45;;;;;;;5.50;2.67;;;12.10;99.90;;;;;;4885948;29;20229;-89
2023/10/15 01:57:26;;;;;;;4.43;2.20;;;12.10;99.90;;;;;;4888703;29;20230;-88
2023/10/15 02:00:33;;;;;;;10.25;2.78;;;12.10;99.90;;;;;;4887163;29;20245;-90
2023/10/15 02:06:42;;;;;;;6.95;3.13;;;12.00;99.90;;;;;;4858136;29;20623;-85
2023/10/15 02:09:21;;;;;;;5.32;3.05;;;12.00;99.90;;;;;;4926016;29;20228;-88
2023/10/15 02:11:48;;;;;;;6.80;2.20;;;12.00;99.90;;;;;;4938579;29;20217;-85
2023/10/15 02:14:23;;;;;;;9.95;3.88;;;12.00;99.90;;;;;;4938610;29;20220;-81
2023/10/15 02:16:53;;;;;;;5.28;2.30;;;12.00;99.90;;;;;;4936206;29;20614;-82
2023/10/15 02:19:34;;;;;;;3.80;2.33;;;12.10;99.90;;;;;;4936330;29;20232;-82
2023/10/15 02:22:06;;;;;;;4.20;2.00;;;12.10;99.90;;;;;;4926511;29;20235;-81
2023/10/15 02:24:37;;;;;;;8.35;2.75;;;12.10;99.90;;;;;;4936195;29;20260;-85
2023/10/15 02:27:06;;;;;;;4.13;2.05;;;12.10;99.90;;;;;;4924329;29;20229;-88
2023/10/15 02:29:36;;;;;;;4.88;2.70;;;12.10;99.90;;;;;;4915693;29;20229;-85
2023/10/15 02:32:28;;;;;;;9.00;3.58;;;12.10;99.90;;;;;;4916323;29;20344;-81
2023/10/15 02:35:05;;;;;;;8.30;3.42;;;12.10;99.90;;;;;;4916463;29;20237;-88
2023/10/15 02:37:32;;;;;;;7.15;2.63;;;12.10;99.90;;;;;;4917152;29;20239;-82
2023/10/15 02:39:59;;;;;;;7.38;2.30;;;12.10;99.90;;;;;;4907934;29;20229;-86
2023/10/15 02:42:33;;;;;;;8.30;3.97;;;12.10;99.90;;;;;;4916273;29;20226;-81
2023/10/15 02:45:01;;;;;;;7.57;4.35;;;12.10;99.90;;;;;;4916229;29;20334;-81
2023/10/15 02:47:31;;;;;;;3.67;1.70;;;12.20;99.90;;;;;;4916438;29;20240;-82
2023/10/15 02:50:02;;;;;;;9.50;2.78;;;12.10;99.90;;;;;;4915799;29;20233;-82
2023/10/15 02:52:35;;;;;;;6.15;2.15;;;12.10;99.90;;;;;;4916999;29;20237;-82
2023/10/15 02:55:09;;;;;;;4.50;2.42;;;12.20;99.90;;;;;;4916046;29;20236;-88
2023/10/15 02:57:39;;;;;;;4.35;2.20;;;12.10;99.90;;;;;;4917356;29;20695;-88
2023/10/15 03:00:13;;;;;;;6.10;2.85;;;12.10;99.90;;;;;;4916008;29;20229;-87
2023/10/15 03:02:45;;;;;;;9.02;3.50;;;12.10;99.90;;;;;;4916751;29;20248;-81
2023/10/15 03:05:16;;;;;;;8.02;3.15;;;12.10;99.90;;;;;;4950362;23;20228;-81
2023/10/15 03:07:43;;;;;;;7.70;2.10;;;12.00;99.90;;;;;;4954871;29;20236;-88
2023/10/15 03:10:12;;;;;;;5.00;2.38;;;12.00;99.90;;;;;;4954198;28;20593;-80
2023/10/15 03:12:43;;;;;;;7.40;2.60;;;12.00;99.90;;;;;;4957487;29;20228;-82
2023/10/15 03:15:13;;;;;;;8.25;2.67;;;11.90;99.90;;;;;;4957113;29;20234;-87
2023/10/15 03:17:43;;;;;;;8.73;2.00;;;11.90;99.90;;;;;;4958180;29;20236;-87
2023/10/15 03:20:24;;;;;;;4.85;2.10;;;11.80;99.90;;;;;;4957035;29;20235;-81
2023/10/15 03:22:52;;;;;;;5.63;2.17;;;11.90;99.90;;;;;;4957096;29;20250;-87
2023/10/15 03:25:20;;;;;;;7.32;2.20;;;11.80;99.90;;;;;;4957152;29;20239;-87
2023/10/15 03:27:47;;;;;;;7.85;2.67;;;11.80;99.90;;;;;;4957911;29;20227;-86
2023/10/15 03:30:15;;;;;;;7.03;2.30;;;11.80;99.90;;;;;;4957251;29;20228;-86
2023/10/15 03:32:47;;;;;;;10.63;2.90;;;11.80;99.90;;;;;;4957636;29;20267;-86
2023/10/15 03:35:18;;;;;;;9.57;2.50;;;11.80;99.90;;;;;;4958175;29;20220;-86
2023/10/15 03:37:58;;;;;;;7.40;1.95;;;11.70;99.90;;;;;;4958498;29;20228;-86
2023/10/15 03:40:32;;;;;;;9.98;1.90;;;11.70;99.90;;;;;;4957985;29;20219;-86
2023/10/15 03:43:06;;;;;;;8.45;3.10;;;11.70;99.90;;;;;;4957282;29;20267;-82
2023/10/15 03:45:39;;;;;;;5.10;3.40;;;11.70;99.90;;;;;;4956962;29;20243;-82
2023/10/15 03:48:14;;;;;;;6.75;2.42;;;11.70;99.90;;;;;;4957554;29;20228;-86
2023/10/15 03:50:53;;;;;;;7.20;2.50;;;11.70;99.90;;;;;;4957420;29;20251;-88
2023/10/15 03:53:27;;;;;;;6.47;2.25;;;11.70;99.90;;;;;;4946473;29;20243;-82
2023/10/15 03:55:56;;;;;;;6.47;2.63;;;11.70;99.90;;;;;;4957135;29;20306;-82
2023/10/15 03:58:24;;;;;;;7.22;3.45;;;11.70;99.90;;;;;;4956876;29;20283;-86
2023/10/15 04:00:56;;;;;;;5.63;2.45;;;11.60;99.90;;;;;;4947207;29;20280;-82
2023/10/15 04:03:28;;;;;;;9.05;2.17;;;11.70;99.90;;;;;;4942412;29;20256;-88
2023/10/15 04:06:00;;;;;;;8.88;2.83;;;11.60;99.90;;;;;;4956656;28;20232;-82
2023/10/15 04:08:30;;;;;;;8.48;3.03;;;11.60;99.90;;;;;;4955717;29;20258;-82
2023/10/15 04:10:58;;;;;;;4.63;2.40;;;11.60;99.90;;;;;;4956686;29;20259;-80
2023/10/15 04:13:26;;;;;;;5.88;2.20;;;11.60;99.90;;;;;;4956574;29;20718;-87
2023/10/15 04:15:57;;;;;;;5.88;3.10;;;11.60;99.90;;;;;;4956706;29;20315;-86
2023/10/15 04:18:26;;;;;;;5.57;3.17;;;11.60;99.90;;;;;;4956805;29;20224;-82
2023/10/15 04:20:55;;;;;;;7.70;3.65;;;11.50;99.90;;;;;;4957323;28;20244;-86
2023/10/15 04:23:31;;;;;;;5.53;2.08;;;11.50;99.90;;;;;;4956711;29;20698;-86
2023/10/15 04:26:02;;;;;;;4.03;1.65;;;11.50;99.90;;;;;;4956872;29;20249;-81
2023/10/15 04:28:30;;;;;;;10.70;2.50;;;11.50;99.90;;;;;;4955752;29;20310;-81
2023/10/15 04:30:57;;;;;;;6.45;1.92;;;11.50;99.90;;;;;;4956565;29;20235;-80
2023/10/15 04:33:30;;;;;;;8.23;2.35;;;11.50;99.90;;;;;;4954592;29;20252;-81
2023/10/15 04:35:57;;;;;;;9.55;1.90;;;11.50;99.90;;;;;;4956300;29;20357;-80
2023/10/15 04:38:28;;;;;;;4.03;2.70;;;11.50;99.90;;;;;;4956669;29;20307;-87
2023/10/15 04:41:03;;;;;;;9.73;3.40;;;11.40;99.90;;;;;;4956525;29;20215;-86
2023/10/15 04:43:40;;;;;;;3.35;2.10;;;11.40;99.90;;;;;;4956818;29;20224;-86
2023/10/15 04:46:08;;;;;;;9.23;2.80;;;11.40;99.90;;;;;;4956998;29;20287;-86
2023/10/15 04:48:37;;;;;;;6.88;2.45;;;11.40;99.90;;;;;;4955252;29;20262;-86
2023/10/15 04:51:13;;;;;;;6.03;2.30;;;11.40;99.90;;;;;;4956402;29;20615;-81
2023/10/15 04:53:44;;;;;;;4.22;1.95;;;11.30;99.90;;;;;;4954412;29;20257;-81
2023/10/15 04:56:26;;;;;;;7.72;2.40;;;11.30;99.90;;;;;;4956245;29;20256;-81
2023/10/15 04:58:53;;;;;;;8.23;3.05;;;11.30;99.90;;;;;;4955715;29;20224;-81
2023/10/15 05:01:23;;;;;;;4.75;2.35;;;11.30;99.90;;;;;;4945904;29;20223;-81
2023/10/15 05:03:52;;;;;;;5.95;2.03;;;11.30;99.90;;;;;;4955312;29;20311;-81
2023/10/15 05:06:21;;;;;;;5.13;1.73;;;11.30;99.90;;;;;;4944355;28;20244;-86
2023/10/15 05:08:48;;;;;;;5.20;2.05;;;11.20;99.90;;;;;;4956128;29;20612;-86
2023/10/15 05:11:21;;;;;;;5.82;2.13;;;11.20;99.90;;;;;;4955090;29;20308;-82
2023/10/15 05:13:53;;;;;;;5.82;3.10;;;11.20;99.90;;;;;;4954720;29;20239;-81
2023/10/15 05:16:25;;;;;;;7.93;1.80;;;11.20;99.90;;;;;;4953675;29;20232;-81
2023/10/15 05:18:59;;;;;;;9.20;2.40;;;11.20;99.90;;;;;;4954420;29;20754;-81
2023/10/15 05:21:36;;;;;;;8.77;2.92;;;11.20;99.90;;;;;;4951998;29;20334;-81
2023/10/15 05:24:07;;;;;;;7.60;2.50;;;11.20;99.90;;;;;;4954839;29;20718;-81
2023/10/15 05:26:38;;;;;;;8.75;3.03;;;11.20;99.90;;;;;;4924076;29;20239;-80
2023/10/15 05:29:08;;;;;;;14.30;2.33;;;11.20;99.90;;;;;;4934770;29;20233;-81
2023/10/15 05:34:45;;;;;;;3.83;1.73;;;11.20;99.90;;;;;;4954513;28;20216;-81
2023/10/15 05:37:16;;;;;;;3.78;2.00;;;11.20;99.90;;;;;;4954386;29;20220;-80
2023/10/15 05:39:48;;;;;;;11.68;2.95;;;11.10;99.90;;;;;;4944952;29;20235;-82
2023/10/15 05:42:21;;;;;;;5.45;1.73;;;11.20;99.90;;;;;;4936427;29;20311;-81
2023/10/15 05:45:10;;;;;;;;;;;;;;;;;;;;;
2023/10/15 05:47:39;;;;;;;7.88;2.00;;;11.10;99.90;;;;;;4938732;29;20242;-81
2023/10/15 05:50:19;;;;;;;9.32;3.47;;;11.10;99.90;;;;;;4935556;29;20300;-81
2023/10/15 05:53:07;;;;;;;5.93;2.88;;;11.10;99.90;;;;;;4954080;29;20228;-81
2023/10/15 05:55:39;;;;;;;8.05;2.63;;;11.10;99.90;;;;;;4954833;29;20243;-81
2023/10/15 05:58:20;;;;;;;3.60;1.80;;;11.10;99.90;;;;;;4951692;28;20224;-81
2023/10/15 06:00:52;;;;;;;9.82;2.72;;;11.10;99.90;;;;;;4953788;29;20255;-81
2023/10/15 06:03:25;;;;;;;4.57;2.28;;;11.10;99.90;;;;;;4931025;29;20228;-81
2023/10/15 06:06:05;;;;;;;5.10;1.70;;;11.10;99.90;;;;;;4931181;29;20239;-81
2023/10/15 06:08:40;;;;;;;7.88;3.30;;;11.10;99.90;;;;;;4945176;29;20232;-81
2023/10/15 06:11:31;;;;;;;11.80;2.88;;;11.10;99.90;;;;;;4932547;29;20318;-80
2023/10/15 06:17:00;;;;;;;6.53;2.00;;;11.10;99.90;;;;;;4945460;29;20228;-80
2023/10/15 06:22:42;;;;;;;5.95;2.15;;;11.10;99.90;;;;;;4926521;29;20220;-80
2023/10/15 06:28:24;;;;;;;5.75;2.50;;;11.10;99.90;;;;;;4943824;29;20227;-80
2023/10/15 06:30:58;;;;;;;7.68;2.92;;;11.10;99.90;;;;;;4954855;29;20239;-81
2023/10/15 06:33:29;;;;;;;7.47;2.35;;;11.10;99.90;;;;;;4953772;29;20580;-81
2023/10/15 06:36:14;;;;;;;5.10;2.45;;;11.10;99.90;;;;;;4936278;29;20774;-80
2023/10/15 06:41:31;;;;;;;6.60;2.30;;;11.10;99.90;;;;;;4912743;29;20229;-80
2023/10/15 06:44:00;;;;;;;4.00;2.70;;;11.20;99.90;;;;;;4916840;29;20717;-81
2023/10/15 06:46:54;;;;;;;5.95;2.00;;;11.20;99.90;;;;;;4946559;29;20260;-80
2023/10/15 06:49:53;;;;;;;4.70;2.17;;;11.20;99.90;;;;;;4962090;29;20220;-80
2023/10/15 06:55:19;;;;;;;5.28;2.55;;;11.20;99.90;;;;;;4950161;29;20311;-86
2023/10/15 06:57:47;;;;;;;5.68;1.95;;;11.20;99.90;;;;;;4962449;29;20694;-86
2023/10/15 07:00:21;;;;;;;3.05;1.63;;;11.20;99.90;;;;;;4936741;29;20236;-81
2023/10/15 07:02:50;;;;;;;4.25;2.30;;;11.20;99.90;;;;;;4948089;29;20224;-82
2023/10/15 07:05:19;;;;;;;6.90;2.50;;;11.20;99.90;;;;;;4958586;29;20579;-80
2023/10/15 07:07:48;;;;;;;13.00;3.40;;;11.20;99.90;;;;;;4958506;29;20547;-80
2023/10/15 07:10:18;;;;;;;6.70;3.50;;;11.30;99.90;;;;;;4957600;29;20228;-80
2023/10/15 07:12:45;;;;;;;7.10;2.50;;;11.20;99.90;;;;;;4958657;29;20698;-81
2023/10/15 07:15:14;;;;;;;8.13;3.03;;;11.30;99.90;;;;;;4959205;29;20232;-81
2023/10/15 07:17:42;;;;;;;6.50;3.78;;;11.30;99.90;;;;;;4962963;29;20238;-86
2023/10/15 07:20:16;;;;;;;5.35;2.90;;;11.30;99.90;;;;;;4963066;29;20264;-80
2023/10/15 07:23:02;;;;;;;6.43;2.63;;;11.40;99.90;;;;;;4966301;29;20227;-86
2023/10/15 07:25:32;;;;;;;5.15;2.40;;;11.40;99.90;;;;;;4967141;29;20254;-80
2023/10/15 07:28:04;;;;;;;6.75;2.63;;;11.50;99.90;;;;;;4967961;29;20407;-86
2023/10/15 07:30:33;;;;;;;3.45;2.50;;;11.50;99.90;;;;;;4961177;29;20228;-85
2023/10/15 07:33:01;;;;;;;7.93;2.13;;;11.50;99.90;;;;;;4958099;29;20228;-81
2023/10/15 07:35:30;;;;;;;9.55;2.70;;;11.60;99.90;;;;;;4958951;29;20578;-87
2023/10/15 07:37:57;;;;;;;4.53;2.15;;;11.60;99.90;;;;;;4959649;29;20228;-84
2023/10/15 07:40:26;;;;;;;4.60;2.35;;;11.60;99.90;;;;;;4957559;29;20598;-86
2023/10/15 07:42:59;;;;;;;7.72;2.55;;;11.70;99.90;;;;;;4948028;29;20244;-86
2023/10/15 07:45:29;;;;;;;5.25;1.70;;;11.70;99.90;;;;;;4957141;29;20322;-86
2023/10/15 07:47:59;;;;;;;5.47;2.47;;;11.80;99.90;;;;;;4957992;29;20236;-87
2023/10/15 07:50:38;;;;;;;9.02;2.03;;;11.80;99.90;;;;;;4948564;29;20224;-82
2023/10/15 07:53:06;;;;;;;5.75;2.63;;;11.80;99.90;;;;;;4944013;29;20262;-86
2023/10/15 07:55:33;;;;;;;5.25;1.90;;;11.80;99.90;;;;;;4937660;29;20714;-81
2023/10/15 07:58:04;;;;;;;5.95;2.33;;;11.80;99.90;;;;;;4954734;29;20242;-80
2023/10/15 08:01:34;;;;;;;10.38;2.30;;;11.90;99.90;;;;;;4956577;29;20687;-81
2023/10/15 08:04:04;;;;;;;6.05;3.20;;;11.90;99.90;;;;;;4956760;29;20247;-81
2023/10/15 08:06:32;;;;;;;6.80;4.32;;;11.90;99.90;;;;;;4946741;29;20353;-80
2023/10/15 08:08:59;;;;;;;8.32;3.60;;;11.90;99.90;;;;;;4935678;29;20225;-81
2023/10/15 08:11:27;;;;;;;5.65;2.97;;;12.00;99.90;;;;;;4944269;29;20224;-81
2023/10/15 08:14:05;;;;;;;9.10;2.65;;;12.00;99.90;;;;;;4956360;29;20562;-81
2023/10/15 08:17:14;;;;;;;9.00;3.00;;;12.00;99.90;;;;;;4956990;29;20235;-81
2023/10/15 08:19:41;;;;;;;8.40;2.50;;;12.10;99.90;;;;;;4937297;29;20232;-81
2023/10/15 08:22:10;;;;;;;4.35;1.52;;;12.10;99.90;;;;;;4939560;29;20243;-80
2023/10/15 08:24:43;;;;;;;4.07;1.70;;;12.10;99.90;;;;;;4955073;29;20236;-80
2023/10/15 08:27:13;;;;;;;3.58;1.90;;;12.10;99.90;;;;;;4955703;29;20224;-80
2023/10/15 08:29:58;;;;;;;7.97;1.67;;;12.10;99.90;;;;;;4939317;29;20254;-81
2023/10/15 08:32:28;;;;;;;9.57;2.22;;;12.10;99.90;;;;;;4936608;29;20279;-81
2023/10/15 08:34:55;;;;;;;5.47;1.95;;;12.00;99.90;;;;;;4922894;29;20224;-81
2023/10/15 08:37:35;;;;;;;;;;;;;;;;;;;;;
2023/10/15 08:40:15;;;;;;;2.42;1.30;;;12.10;99.90;;;;;;4931991;29;20528;-82
2023/10/15 08:42:53;;;;;;;4.28;1.75;;;12.10;99.90;;;;;;4936959;29;20542;-86
2023/10/15 08:45:43;;;;;;;9.77;1.60;;;12.10;99.90;;;;;;4937508;29;20251;-81
2023/10/15 08:48:15;;;;;;;1.63;1.40;;;12.10;99.90;;;;;;4943133;29;20224;-87
2023/10/15 08:50:43;;;;;;;3.67;1.90;;;12.10;99.90;;;;;;4928343;29;20238;-81
2023/10/15 08:53:10;;;;;;;4.70;1.60;;;12.10;99.90;;;;;;4956242;29;20232;-82
2023/10/15 08:55:41;;;;;;;1.88;1.42;;;12.10;99.90;;;;;;4946333;29;20761;-88
2023/10/15 08:58:10;;;;;;;1.77;1.23;;;12.10;99.90;;;;;;4936390;29;20651;-86
2023/10/15 09:00:40;;;;;;;5.43;1.67;;;12.20;99.90;;;;;;4937306;29;20626;-81
2023/10/15 09:03:13;;;;;;;3.63;1.70;;;12.30;99.90;;;;;;4941442;29;20294;-81
2023/10/15 09:05:44;;;;;;;2.10;1.30;;;12.30;99.90;;;;;;4920578;29;20245;-82
2023/10/15 09:08:13;;;;;;;2.40;1.55;;;12.30;99.90;;;;;;4937449;29;20678;-81
2023/10/15 09:10:43;;;;;;;2.33;1.27;;;12.30;99.90;;;;;;4940027;29;20642;-81
2023/10/15 09:13:14;;;;;;;5.68;1.40;;;12.40;99.90;;;;;;4936560;29;20251;-81
2023/10/15 09:15:48;;;;;;;5.28;1.60;;;12.40;99.90;;;;;;4936333;29;20252;-81
2023/10/15 09:18:16;;;;;;;3.42;2.10;;;12.40;99.90;;;;;;4935572;29;20745;-81
2023/10/15 09:20:59;;;;;;;1.35;1.05;;;12.50;99.90;;;;;;4934493;29;20686;-86
2023/10/15 09:23:32;;;;;;;3.42;1.48;;;12.60;99.90;;;;;;4919948;29;20609;-81
2023/10/15 09:25:59;;;;;;;4.30;2.08;;;12.60;99.90;;;;;;4927510;29;20232;-88
2023/10/15 09:28:28;;;;;;;1.95;1.63;;;12.60;99.90;;;;;;4940157;29;20651;-86
2023/10/15 09:31:06;;;;;;;2.58;1.98;;;12.70;99.90;;;;;;4937054;29;20311;-87
2023/10/15 09:33:35;;;;;;;5.28;2.90;;;12.70;99.90;;;;;;4936694;29;20562;-82
2023/10/15 09:36:05;;;;;;;2.53;1.93;;;12.70;99.90;;;;;;4937231;29;20751;-87
2023/10/15 09:38:32;;;;;;;4.07;1.48;;;12.70;99.90;;;;;;4930094;29;20480;-87
2023/10/15 09:41:13;;;;;;;1.40;1.13;;;12.70;99.90;;;;;;4937128;29;20225;-87
2023/10/15 09:43:43;;;;;;;2.03;1.10;;;12.80;99.90;;;;;;4934632;29;20630;-87
2023/10/15 09:46:12;;;;;;;2.65;1.33;;;12.80;99.90;;;;;;4936309;29;20618;-81
2023/10/15 09:48:40;;;;;;;1.33;1.05;;;12.90;99.90;;;;;;4919005;29;20291;-81
2023/10/15 09:51:11;;;;;;;1.40;1.30;;;12.90;99.90;;;;;;4928094;29;20548;-82
2023/10/15 09:53:41;;;;;;;4.07;1.80;;;13.00;99.90;;;;;;4934410;29;20483;-81
2023/10/15 09:56:12;;;;;;;5.07;1.60;;;13.00;99.90;;;;;;4937790;29;20464;-86
2023/10/15 09:59:02;;;;;;;1.75;1.23;;;13.00;99.90;;;;;;4927392;29;20238;-87
2023/10/15 10:01:38;;;;;;;3.65;1.30;;;13.10;99.90;;;;;;4931938;29;20220;-87
2023/10/15 10:04:40;;;;;;;2.08;1.30;;;13.20;99.90;;;;;;4936505;29;20224;-87
2023/10/15 10:07:48;;;;;;;7.65;1.70;;;13.20;99.90;;;;;;4946183;29;20216;-81
2023/10/15 10:10:39;;;;;;;2.08;1.10;;;13.20;99.90;;;;;;4937560;29;20288;-86
2023/10/15 10:13:32;;;;;;;3.77;1.27;;;13.20;99.90;;;;;;4935554;29;20252;-81
2023/10/15 10:16:00;;;;;;;2.37;1.20;;;13.30;99.90;;;;;;4930151;29;20496;-87
2023/10/15 10:18:33;;;;;;;0.90;0.90;;;13.30;99.90;;;;;;4936890;29;20469;-87
2023/10/15 10:21:16;;;;;;;1.83;1.13;;;13.30;99.90;;;;;;4939104;29;20228;-88
2023/10/15 10:23:47;;;;;;;2.23;1.50;;;13.30;99.90;;;;;;4961277;29;20230;-87
2023/10/15 10:26:16;;;;;;;2.07;1.50;;;13.30;99.90;;;;;;4947753;29;20958;-80
2023/10/15 10:28:47;;;;;;;2.65;1.20;;;13.30;99.90;;;;;;4951282;29;20478;-87
2023/10/15 10:31:18;;;;;;;2.90;1.88;;;13.30;99.90;;;;;;4946152;29;20295;-88
2023/10/15 10:33:53;;;;;;;2.37;1.53;;;13.30;99.90;;;;;;4940372;29;20248;-87
2023/10/15 10:36:25;;;;;;;3.20;1.33;;;13.30;99.90;;;;;;4939400;29;20955;-87
2023/10/15 10:39:11;;;;;;;3.42;1.42;;;13.40;99.90;;;;;;4942350;29;20232;-87
2023/10/15 10:41:42;;;;;;;6.05;1.80;;;13.50;99.90;;;;;;4941634;29;20260;-87
2023/10/15 10:47:23;;;;;;;1.70;1.13;;;13.60;99.90;;;;;;4938905;29;20542;-81
2023/10/15 10:49:56;;;;;;;1.33;1.00;;;13.60;99.90;;;;;;4939146;29;20565;-81
2023/10/15 10:52:44;;;;;;;2.97;1.30;;;13.70;99.90;;;;;;4939076;29;20479;-87
2023/10/15 10:55:36;;;;;;;4.03;1.40;;;13.60;99.90;;;;;;4937352;29;20475;-87
2023/10/15 10:58:09;;;;;;;2.60;1.40;;;13.70;99.90;;;;;;4939737;29;20488;-88
2023/10/15 11:00:42;;;;;;;2.17;1.30;;;13.70;99.90;;;;;;4940072;29;20483;-86
2023/10/15 11:03:09;;;;;;;5.77;2.13;;;13.70;99.90;;;;;;4939594;29;20567;-87
2023/10/15 11:05:38;;;;;;;1.87;1.67;;;13.70;99.90;;;;;;4949576;29;20482;-82
2023/10/15 11:08:17;;;;;;;1.93;1.43;;;13.70;99.90;;;;;;4956554;29;20543;-82
2023/10/15 11:10:45;;;;;;;2.43;1.00;;;13.60;99.90;;;;;;4942458;29;20479;-87
2023/10/15 11:13:13;;;;;;;3.67;1.77;;;13.60;99.90;;;;;;4955661;29;20471;-82
2023/10/15 11:15:41;;;;;;;4.40;2.00;;;13.70;99.90;;;;;;4957973;29;20472;-81
2023/10/15 11:18:17;;;;;;;3.10;2.33;;;13.70;99.90;;;;;;4948459;29;20224;-86
2023/10/15 11:20:45;;;;;;;1.95;1.20;;;13.70;99.90;;;;;;4944094;28;20659;-87
2023/10/15 11:23:15;;;;;;;5.00;1.20;;;13.60;99.90;;;;;;4934592;29;20224;-81
2023/10/15 11:25:42;;;;;;;1.83;1.47;;;13.60;99.90;;;;;;4929835;29;20477;-81
2023/10/15 11:28:10;;;;;;;3.92;1.20;;;13.60;99.90;;;;;;4939310;29;20476;-86
2023/10/15 11:30:39;;;;;;;4.72;1.45;;;13.60;99.90;;;;;;4959364;28;20227;-86
2023/10/15 11:33:07;;;;;;;1.17;0.90;;;13.60;99.90;;;;;;4957561;29;20220;-88
2023/10/15 11:35:37;;;;;;;2.95;1.30;;;13.60;99.90;;;;;;4958735;29;20616;-87
2023/10/15 11:38:09;;;;;;;2.55;1.30;;;13.60;99.90;;;;;;4958062;29;20224;-88
2023/10/15 11:40:38;;;;;;;3.00;1.55;;;13.60;99.90;;;;;;4947739;29;20241;-88
2023/10/15 11:43:17;;;;;;;2.78;1.52;;;13.60;99.90;;;;;;4928158;29;20675;-89
2023/10/15 11:45:47;;;;;;;1.83;1.47;;;13.60;99.90;;;;;;4937722;29;20282;-86
2023/10/15 11:49:12;;;;;;;2.50;1.15;;;13.50;99.90;;;;;;4928585;29;20508;-87
2023/10/15 11:51:42;;;;;;;3.90;2.00;;;13.50;99.90;;;;;;4898573;29;20238;-87
2023/10/15 11:54:19;;;;;;;1.90;1.33;;;13.50;99.90;;;;;;4899586;29;20636;-87
2023/10/15 11:56:50;;;;;;;1.95;1.33;;;13.50;99.90;;;;;;4899709;29;20690;-86
2023/10/15 11:59:17;;;;;;;2.40;1.60;;;13.50;99.90;;;;;;4899080;29;20246;-88
2023/10/15 12:01:50;;;;;;;2.00;1.00;;;13.50;99.90;;;;;;4890926;29;20238;-87
2023/10/15 12:06:52;;;;;;;2.40;1.50;;;13.50;99.90;;;;;;4917721;29;20222;-87
2023/10/15 12:10:24;;;;;;;1.77;1.52;;;13.50;99.90;;;;;;4919602;29;20477;-87
2023/10/15 12:12:52;;;;;;;2.35;1.30;;;13.60;99.90;;;;;;4907511;29;20663;-81
2023/10/15 12:15:20;;;;;;;1.75;1.35;;;13.60;99.90;;;;;;4919430;29;20542;-82
2023/10/15 12:17:53;;;;;;;1.60;1.50;;;13.60;99.90;;;;;;4908508;29;20629;-88
2023/10/15 12:20:20;;;;;;;2.17;1.65;;;13.70;99.90;;;;;;4918204;29;20490;-82
2023/10/15 12:22:47;;;;;;;3.10;1.80;;;13.70;99.90;;;;;;4918246;29;20246;-82
2023/10/15 12:25:14;;;;;;;1.50;1.20;;;13.80;99.90;;;;;;4936575;29;20232;-88
2023/10/15 12:27:43;;;;;;;2.10;1.42;;;13.80;99.90;;;;;;4931831;29;20261;-87
2023/10/15 12:30:19;;;;;;;4.87;1.50;;;13.90;99.90;;;;;;4938085;29;20244;-81
2023/10/15 12:32:47;;;;;;;13.77;4.30;;;13.90;99.90;;;;;;4894439;29;20508;-87
2023/10/15 12:35:19;;;;;;;4.37;2.17;;;14.00;99.80;;;;;;4910857;29;20470;-88
2023/10/15 12:37:47;;;;;;;2.47;1.90;;;14.00;99.90;;;;;;4920449;29;20497;-87
2023/10/15 12:40:21;;;;;;;11.03;2.43;;;14.10;99.90;;;;;;4920425;29;20525;-87
2023/10/15 12:42:51;;;;;;;3.67;1.90;;;14.20;99.90;;;;;;4911855;29;20504;-87
2023/10/15 12:45:28;;;;;;;2.40;1.60;;;14.20;99.40;;;;;;4910540;29;20553;-87
2023/10/15 12:48:33;;;;;;;;;;;;;;;;;;;;;
2023/10/15 12:51:00;;;;;;;2.20;1.60;;;14.20;99.40;;;;;;4889470;29;20482;-86
2023/10/15 12:53:28;;;;;;;5.17;3.70;;;14.20;99.30;;;;;;4918571;29;20469;-81
2023/10/15 12:55:55;;;;;;;4.73;3.10;;;14.20;99.50;;;;;;4917327;29;20481;-82
2023/10/15 12:58:29;;;;;;;5.63;3.83;;;14.20;99.50;;;;;;4917132;29;20473;-80
2023/10/15 13:01:01;;;;;;;3.20;1.70;;;14.20;99.50;;;;;;4909377;29;20514;-86
2023/10/15 13:03:29;;;;;;;4.10;1.70;;;14.20;99.50;;;;;;4919209;29;20473;-83
2023/10/15 13:09:54;;;;;;;2.40;1.70;;;14.20;99.60;;;;;;4889705;29;21102;-81
2023/10/15 13:12:42;;;;;;;2.97;1.90;;;14.30;99.20;;;;;;4947371;28;20477;-87
2023/10/15 13:15:17;;;;;;;3.17;1.50;;;14.20;98.80;;;;;;4937807;29;20476;-87
2023/10/15 13:17:54;;;;;;;2.03;1.60;;;14.30;98.60;;;;;;4938184;29;20531;-82
2023/10/15 13:20:28;;;;;;;2.40;1.70;;;14.30;98.80;;;;;;4934492;29;20479;-82
2023/10/15 13:22:56;;;;;;;2.40;1.87;;;14.40;98.60;;;;;;4930628;29;20453;-85
2023/10/15 13:25:31;;;;;;;5.43;1.90;;;14.30;98.00;;;;;;4922472;29;20466;-88
2023/10/15 13:27:59;;;;;;;3.00;1.33;;;14.40;98.00;;;;;;4935118;29;20494;-81
2023/10/15 13:30:48;;;;;;;1.83;1.50;;;14.40;97.80;;;;;;4922491;29;20559;-82
2023/10/15 13:33:48;;;;;;;2.63;1.40;;;14.40;97.90;;;;;;4919500;29;21016;-88
2023/10/15 13:36:23;;;;;;;3.63;1.80;;;14.40;97.80;;;;;;4908755;29;20472;-87
2023/10/15 13:39:19;;;;;;;5.07;2.10;;;14.50;98.00;;;;;;4926840;29;20559;-87
2023/10/15 13:41:51;;;;;;;4.33;1.60;;;14.50;97.90;;;;;;4926475;29;20476;-81
2023/10/15 13:44:18;;;;;;;3.97;2.00;;;14.50;97.80;;;;;;4939473;29;20453;-86
2023/10/15 13:46:48;;;;;;;2.47;1.87;;;14.50;97.60;;;;;;4940194;29;20480;-81
2023/10/15 13:49:23;;;;;;;2.47;1.37;;;14.50;97.60;;;;;;4927170;29;20910;-82
2023/10/15 13:52:06;;;;;;;2.37;1.80;;;14.50;97.60;;;;;;4938614;29;20472;-87
2023/10/15 13:54:39;;;;;;;4.33;2.40;;;14.50;97.80;;;;;;4937287;29;20481;-81
2023/10/15 13:57:10;;;;;;;5.70;2.97;;;14.50;97.70;;;;;;4935947;29;20780;-82
2023/10/15 13:59:48;;;;;;;2.60;1.50;;;14.40;97.40;;;;;;4918154;29;20480;-82
2023/10/15 14:02:21;;;;;;;3.70;3.10;;;14.40;97.40;;;;;;4906416;29;20469;-81